createdAt,value
2022-10-31T00:01:27.912Z,97838.25
2022-10-31T00:06:31.011Z,97834.06
2022-10-31T00:11:33.590Z,97828.09
2022-10-31T00:16:36.229Z,97825.56
2022-10-31T00:21:39.074Z,97823.84
2022-10-31T00:26:41.728Z,97820.44
2022-10-31T00:31:44.367Z,97820.47
2022-10-31T00:36:46.972Z,97794.13
2022-10-31T00:41:49.671Z,97799.25
2022-10-31T00:46:52.765Z,97808.56
2022-10-31T00:51:57.947Z,97794.13
2022-10-31T00:57:00.581Z,97786.50
2022-10-31T01:02:03.408Z,97778.84
2022-10-31T01:07:06.760Z,97761.06
2022-10-31T01:12:09.583Z,97794.13
2022-10-31T01:17:15.529Z,97781.41
2022-10-31T01:22:18.298Z,97795.84
2022-10-31T01:27:21.318Z,97787.34
2022-10-31T01:32:24.257Z,97789.88
2022-10-31T01:37:27.441Z,97792.44
2022-10-31T01:42:30.048Z,97805.16
2022-10-31T01:47:44.198Z,97811.94
2022-10-31T01:52:50.642Z,97800.94
2022-10-31T01:57:58.544Z,97807.72
2022-10-31T02:03:02.085Z,97816.19
2022-10-31T02:08:26.775Z,97789.88
2022-10-31T02:13:30.344Z,97804.28
2022-10-31T02:18:33.690Z,97815.31
2022-10-31T02:24:07.271Z,97816.16
2022-10-31T02:29:50.032Z,97808.53
2022-10-31T02:34:52.608Z,97808.53
2022-10-31T02:40:05.842Z,97811.06
2022-10-31T02:45:56.212Z,97811.03
2022-10-31T02:51:03.685Z,97813.59
2022-10-31T02:56:17.328Z,97805.97
2022-10-31T03:01:30.429Z,97813.56
2022-10-31T03:06:52.078Z,97815.25
2022-10-31T03:12:03.766Z,97815.25
2022-10-31T03:17:08.503Z,97821.19
2022-10-31T03:22:18.986Z,97815.22
2022-10-31T03:27:31.258Z,97782.97
2022-10-31T03:32:35.085Z,97817.78
2022-10-31T03:37:40.342Z,97828.81
2022-10-31T03:43:04.945Z,97822.03
2022-10-31T03:48:09.196Z,97813.56
2022-10-31T03:53:23.817Z,97818.69
2022-10-31T03:58:41.174Z,97823.75
2022-10-31T04:03:45.651Z,97824.59
2022-10-31T04:09:01.694Z,97811.00
2022-10-31T04:14:06.733Z,97805.94
2022-10-31T04:19:13.329Z,97833.13
2022-10-31T04:24:16.308Z,97834.81
2022-10-31T04:29:19.659Z,97844.16
2022-10-31T04:34:22.317Z,97850.91
2022-10-31T04:39:27.169Z,97853.47
2022-10-31T04:44:48.494Z,97856.00
2022-10-31T04:49:51.683Z,97863.63
2022-10-31T04:54:54.586Z,97861.88
2022-10-31T05:00:23.754Z,97874.66
2022-10-31T05:05:32.095Z,97855.13
2022-10-31T05:10:37.770Z,97891.66
2022-10-31T05:15:40.611Z,97904.34
2022-10-31T05:21:01.839Z,97928.97
2022-10-31T05:26:10.713Z,97898.41
2022-10-31T05:31:13.702Z,97927.28
2022-10-31T05:36:18.009Z,97931.56
2022-10-31T05:41:34.967Z,97932.44
2022-10-31T05:46:47.058Z,97947.72
2022-10-31T05:52:01.789Z,97969.81
2022-10-31T05:57:14.442Z,97941.81
2022-10-31T06:02:17.004Z,97995.34
2022-10-31T06:07:42.325Z,97997.81
2022-10-31T06:12:45.003Z,98013.19
2022-10-31T06:18:06.515Z,98037.81
2022-10-31T06:23:12.375Z,98041.22
2022-10-31T06:28:16.909Z,98049.75
2022-10-31T06:33:29.693Z,98070.97
2022-10-31T06:38:36.547Z,98087.06
2022-10-31T06:43:41.340Z,98088.78
2022-10-31T06:49:03.842Z,98095.63
2022-10-31T06:54:18.587Z,98122.84
2022-10-31T06:59:22.238Z,98114.31
2022-10-31T07:04:53.961Z,98156.88
2022-10-31T07:09:56.597Z,98144.97
2022-10-31T07:15:15.214Z,98170.56
2022-10-31T07:20:18.131Z,98180.78
2022-10-31T07:25:20.843Z,98173.13
2022-10-31T07:30:43.378Z,98219.03
2022-10-31T07:35:46.298Z,98223.28
2022-10-31T07:40:53.892Z,98245.44
2022-10-31T07:45:56.614Z,98250.53
2022-10-31T07:51:17.202Z,98279.53
2022-10-31T07:56:48.982Z,98272.75
2022-10-31T08:01:52.036Z,98290.63
2022-10-31T08:07:06.858Z,98291.47
2022-10-31T08:12:12.165Z,98307.66
2022-10-31T08:17:14.886Z,98307.69
2022-10-31T08:22:24.970Z,98329.84
2022-10-31T08:27:28.544Z,98340.94
2022-10-31T08:32:34.695Z,98324.75
2022-10-31T08:38:00.981Z,98345.16
2022-10-31T08:43:13.959Z,98336.66
2022-10-31T08:48:18.354Z,98364.78
2022-10-31T08:53:21.068Z,98374.16
2022-10-31T08:58:39.120Z,98388.63
2022-10-31T09:03:43.453Z,98397.97
2022-10-31T09:08:46.853Z,98402.28
2022-10-31T09:13:49.408Z,98406.53
2022-10-31T09:19:08.689Z,98402.28
2022-10-31T09:24:13.815Z,98415.06
2022-10-31T09:29:18.270Z,98410.78
2022-10-31T09:34:24.450Z,98436.34
2022-10-31T09:39:47.268Z,98448.28
2022-10-31T09:45:08.203Z,98455.09
2022-10-31T09:50:24.413Z,98465.38
2022-10-31T09:55:40.734Z,98466.22
2022-10-31T10:00:46.107Z,98476.44
2022-10-31T10:05:58.532Z,98499.38
2022-10-31T10:11:38.206Z,98524.97
2022-10-31T10:16:53.783Z,98542.84
2022-10-31T10:22:05.428Z,98559.03
2022-10-31T10:27:32.445Z,98553.13
2022-10-31T10:32:50.845Z,98568.50
2022-10-31T10:38:02.093Z,98544.66
2022-10-31T10:43:37.062Z,98566.84
2022-10-31T10:48:56.988Z,98567.72
2022-10-31T10:54:15.079Z,98554.91
2022-10-31T10:59:21.897Z,98572.81
2022-10-31T11:04:30.145Z,98563.44
2022-10-31T11:09:33.727Z,98548.94
2022-10-31T11:14:52.018Z,98548.09
2022-10-31T11:20:18.120Z,98577.94
2022-10-31T11:25:26.409Z,98585.59
2022-10-31T11:30:29.761Z,98566.81
2022-10-31T11:35:32.544Z,98573.63
2022-10-31T11:40:35.617Z,98596.59
2022-10-31T11:45:38.206Z,98601.72
2022-10-31T11:50:42.955Z,98573.59
2022-10-31T11:55:47.215Z,98586.34
2022-10-31T12:00:55.280Z,98600.81
2022-10-31T12:06:15.857Z,98617.94
2022-10-31T12:11:30.495Z,98599.19
2022-10-31T12:16:42.046Z,98602.63
2022-10-31T12:22:21.043Z,98617.09
2022-10-31T12:27:45.173Z,98635.88
2022-10-31T12:33:02.907Z,98625.63
2022-10-31T12:38:37.707Z,98620.53
2022-10-31T12:43:42.895Z,98598.31
2022-10-31T12:48:55.545Z,98627.34
2022-10-31T12:54:16.001Z,98636.72
2022-10-31T12:59:43.008Z,98636.69
2022-10-31T13:04:45.455Z,98644.41
2022-10-31T13:09:59.769Z,98681.06
2022-10-31T13:15:14.236Z,98667.41
2022-10-31T13:20:45.224Z,98672.53
2022-10-31T13:25:52.159Z,98691.28
2022-10-31T13:30:55.390Z,98675.13
2022-10-31T13:36:09.902Z,98693.84
2022-10-31T13:41:28.208Z,98699.81
2022-10-31T13:46:34.016Z,98703.25
2022-10-31T13:51:36.898Z,98708.31
2022-10-31T13:56:41.200Z,98721.09
2022-10-31T14:01:50.017Z,98721.91
2022-10-31T14:07:12.150Z,98709.09
2022-10-31T14:12:34.843Z,98747.50
2022-10-31T14:18:12.849Z,98753.41
2022-10-31T14:23:36.395Z,98743.22
2022-10-31T14:28:39.001Z,98750.06
2022-10-31T14:33:43.755Z,98725.25
2022-10-31T14:38:58.515Z,98747.47
2022-10-31T14:44:12.377Z,98779.88
2022-10-31T14:49:24.717Z,98781.56
2022-10-31T14:54:35.489Z,98765.28
2022-10-31T14:59:42.319Z,98788.28
2022-10-31T15:04:47.246Z,98803.69
2022-10-31T15:10:00.871Z,98822.44
2022-10-31T15:15:23.286Z,98818.16
2022-10-31T15:20:30.496Z,98837.75
2022-10-31T15:25:36.150Z,98812.03
2022-10-31T15:30:40.693Z,98825.72
2022-10-31T15:35:56.921Z,98844.53
2022-10-31T15:41:06.227Z,98848.72
2022-10-31T15:46:11.096Z,98871.72
2022-10-31T15:51:13.879Z,98865.72
2022-10-31T15:56:29.089Z,98852.13
2022-10-31T16:01:33.968Z,98866.59
2022-10-31T16:06:40.091Z,98874.22
2022-10-31T16:11:44.470Z,98896.38
2022-10-31T16:16:54.979Z,98899.84
2022-10-31T16:22:04.751Z,98899.78
2022-10-31T16:27:30.037Z,98912.56
2022-10-31T16:32:55.315Z,98914.22
2022-10-31T16:37:57.891Z,98916.81
2022-10-31T16:43:02.383Z,98916.69
2022-10-31T16:48:10.935Z,98934.59
2022-10-31T16:53:16.663Z,98942.19
2022-10-31T16:58:35.022Z,98938.72
2022-10-31T17:03:41.043Z,98960.00
2022-10-31T17:08:43.584Z,98942.97
2022-10-31T17:13:46.391Z,98954.00
2022-10-31T17:18:49.047Z,98930.78
2022-10-31T17:23:51.752Z,98938.59
2022-10-31T17:28:54.297Z,98970.19
2022-10-31T17:34:02.145Z,98959.03
2022-10-31T17:39:07.686Z,98968.34
2022-10-31T17:44:13.587Z,99015.19
2022-10-31T17:49:16.173Z,98984.47
2022-10-31T17:54:22.809Z,99014.28
2022-10-31T17:59:26.639Z,98991.91
2022-10-31T18:04:29.635Z,98982.44
2022-10-31T18:09:32.250Z,99020.13
2022-10-31T18:14:34.945Z,99003.13
2022-10-31T18:19:37.579Z,99013.28
2022-10-31T18:24:40.251Z,99027.69
2022-10-31T18:29:42.807Z,99037.94
2022-10-31T18:34:45.391Z,99028.34
2022-10-31T18:39:48.098Z,99051.53
2022-10-31T18:44:50.732Z,99063.44
2022-10-31T18:49:53.316Z,99059.16
2022-10-31T18:54:55.956Z,99055.72
2022-10-31T18:59:58.651Z,99059.06
2022-10-31T19:05:01.194Z,99062.25
2022-10-31T19:10:05.785Z,99053.69
2022-10-31T19:15:08.753Z,99065.00
2022-10-31T19:20:11.954Z,99075.09
2022-10-31T19:30:34.560Z,99086.06
2022-10-31T19:35:37.041Z,99102.25
2022-10-31T19:40:42.309Z,99092.78
2022-10-31T19:45:57.986Z,99087.56
2022-10-31T19:51:02.531Z,99116.75
2022-10-31T19:56:10.800Z,99147.31
2022-10-31T20:01:42.415Z,99146.31
2022-10-31T20:06:45.303Z,99127.56
2022-10-31T20:11:48.611Z,99116.28
2022-10-31T20:16:51.166Z,99152.34
2022-10-31T20:21:54.354Z,99158.28
2022-10-31T20:26:57.050Z,99168.34
2022-10-31T20:31:59.656Z,99169.94
2022-10-31T20:37:02.254Z,99176.75
2022-10-31T20:42:05.686Z,99175.81
2022-10-31T20:47:08.244Z,99180.09
2022-10-31T20:52:10.807Z,99179.16
2022-10-31T20:57:14.677Z,99183.66
2022-10-31T21:02:17.245Z,99185.16
2022-10-31T21:07:19.964Z,99144.66
2022-10-31T21:12:23.304Z,99201.34
2022-10-31T21:17:25.923Z,99203.66
2022-10-31T21:22:28.918Z,99188.31
2022-10-31T21:27:31.705Z,99195.84
2022-10-31T21:32:34.287Z,99208.66
2022-10-31T21:37:36.837Z,99212.91
2022-10-31T21:42:39.367Z,99218.00
2022-10-31T21:47:41.871Z,99227.31
2022-10-31T21:52:44.587Z,99242.53
2022-10-31T21:57:47.212Z,99248.19
2022-10-31T22:02:49.768Z,99260.88
2022-10-31T22:07:52.338Z,99254.00
2022-10-31T22:12:54.945Z,99257.28
2022-10-31T22:17:58.216Z,99255.34
2022-10-31T22:23:00.951Z,99250.97
2022-10-31T22:28:07.984Z,99259.59
2022-10-31T22:33:10.488Z,99264.84
2022-10-31T22:38:13.239Z,99277.69
2022-10-31T22:43:15.716Z,99280.13
2022-10-31T22:48:18.289Z,99281.78
2022-10-31T22:53:20.833Z,99288.59
2022-10-31T22:58:23.415Z,99285.25
2022-10-31T23:03:26.301Z,99256.16
2022-10-31T23:08:30.091Z,99286.97
2022-10-31T23:13:51.190Z,99279.19
2022-10-31T23:18:54.423Z,99293.50
2022-10-31T23:23:57.821Z,99278.88
2022-10-31T23:29:00.391Z,99288.53
2022-10-31T23:34:02.898Z,99275.47
2022-10-31T23:39:05.482Z,99308.00
2022-10-31T23:44:08.104Z,99290.00
2022-10-31T23:49:10.746Z,99283.97
2022-10-31T23:54:13.320Z,99309.72
2022-10-31T23:59:15.923Z,99314.88
